Port Huron, MI (48060)

8:45 PM EDT on March 27, 2017 (GMT -0400)
Church and 17th Ave | | Change Station

Elev 604 ft 43.00 °N, 82.44 °W | Updated 0 second ago

Overcast
Overcast
41.9 °F
Feels Like 42 °F
N
1.1
Wind Variable Wind from North
Gusts 6.8 mph

Today
High -- | Low -- °F
--% Chance of Precip.
Yesterday
High -- | Low -- °F
Precip. -- in
Pressure 29.91 in
Visibility 10.0 miles
Clouds Overcast 2800 ft
Windchill 42 °F
Dew Point 39 °F
Humidity 90%
Rainfall 0.01 in
Snow Depth Not available.
7:20 AM 7:50 PM
Waning Crescent, 0% visible
METAR KPHN 280036Z AUTO 03007KT 10SM OVC028 12/09 A2991 RMK AO2
Pressure 29.91 in
Visibility 10.0 miles
Clouds Overcast 2800 ft
Windchill 42 °F
Dew Point 39 °F
Humidity 90%
Rainfall 0.01 in
Snow Depth Not available.
7:20 AM 7:50 PM
Waning Crescent, 0% visible
METAR KPHN 280036Z AUTO 03007KT 10SM OVC028 12/09 A2991 RMK AO2

Get Severe Weather Alerts

Thanks for signing up!

Be on the lookout for a verification email in your inbox.

You'll start receiving the daily forecast at 8 AM.

×

10-Day Weather Forecast

Almanac

Astronomy

Mar. 27, 2017 Rise Set
Actual Time
Civil Twilight
Nautical Twilight
Astronomical Twilight
Moon
Length of Visible Light
Length of Day
Tomorrow will be .
, % of the Moon is Illuminated

Today's Extremes

State Highs State Lows

Community

WunderPhotos

Upload Photos

1,962,540 photos uploaded!

WunderBlog® & News

Nearby

Air Quality

  Air Quality AQ Index Pollutant
Not available.

Snow Depth

Station Depth Elevation

Earthquake Activity

City Distance Mag. Time & Date
Minimum magnitude displayed is 2.5.

Earthquake Activity

City Distance Mag. Time & Date
Minimum magnitude displayed is 2.5.

Coastal Water Temperatures

Place Temperature

Stations

Nearby Weather Stations

Station Location Temp. Windchill Dew Point Humidity Wind Precip. Elev Updated Type
                   

Watches & Warnings

There are currently no watches in effect.